Bangkok Pilot, Thailand

5:41 PM ICT on September 16, 2014 (GMT +0700)
Dokmai, Pravet | Change Station
CLOSE
Current Station
Personal Weather Station
Location: Bangkok, BANGKOK
Elevation: 10 ft
Nearby Weather Stations

Elev 10 ft 13.67 °N, 100.70 °E | Updated 3 seconds ago

Mostly Cloudy
Mostly Cloudy
83.8 °F
Feels Like 86 °F
N
13.0
Wind Variable Wind from WNW
Gusts 17.0 mph

Today
High -- | Low -- °F
--% Chance of Precip.
Yesterday
High -- | Low -- °F
Precip. -- in
6:06 AM 6:18 PM
Waning Gibbous, 46% visible
Pressure 29.53 in
Visibility 6.2 miles
Clouds Few 1800 ft
Scattered Clouds 3500 ft
Mostly Cloudy 30000 ft
Heat Index 86 °F
Dew Point 65 °F
Humidity 53%
Rainfall 0.03 in
Snow Depth Not available.
UV 0.0 out of 12
Pollen Not available.
Air Quality Not available.
Flu Activity Not available.
METAR VTBS 161000Z 20010KT 170V230 9999 FEW018CB SCT035 BKN300 30/23 Q1000 NOSIG

More Conditions Fewer Conditions

Pressure 29.53 in
Visibility 6.2 miles
Clouds Few 1800 ft
Scattered Clouds 3500 ft
Mostly Cloudy 30000 ft
Heat Index 86 °F
Dew Point 65 °F
Humidity 53%
Rainfall 0.03 in
Snow Depth Not available.
UV 0.0 out of 12
Pollen Not available.
Air Quality Not available.
Flu Activity Not available.
METAR VTBS 161000Z 20010KT 170V230 9999 FEW018CB SCT035 BKN300 30/23 Q1000 NOSIG

More Conditions Fewer Conditions

10-Day Weather Forecast

Almanac

Astronomy

Sep. 16, 2014 Rise Set
Actual Time 6:06 AM ICT 6:18 PM ICT
Civil Twilight 5:45 AM ICT 6:39 PM ICT
Nautical Twilight 5:20 AM ICT 7:04 PM ICT
Astronomical Twilight 4:55 AM ICT 7:29 PM ICT
Moon No Moon Rise 12:33 PM ICT
Length of Visible Light 12h 54m
Length of Day
12h 11m
Tomorrow will be 0m 45s shorter.
Waning Gibbous, 46% of the Moon is Illuminated
Today
Waning Gibbous
Sep 24
New
Oct 1
First Quarter
Oct 8
Full
Oct 15
Last Quarter

Yesterday's Extremes

Country Highs Country Lows

Community

WunderPhotos

Upload Photos

1,753,720 photos uploaded!

WunderBlogs® & News

Nearby

Snow Depth

Not available.

Earthquake Activity

City Distance Mag. Time & Date
No recent earthquake activity has been reported nearby.
Minimum magnitude displayed is 2.5.

Coastal Water Temperatures

Place Temperature
No Stations Reporting

Nearby Weather Stations